This is the latest recevied weather packets stored in our database for station/object M0XDC. If no packets are shown the sender has not sent any weather packets the latest 10 day(s).
| Time | Temp. | Humidity | Pressure | Rain* | Wind** | Luminosity | Snow |
|---|---|---|---|---|---|---|---|
| 1777552657 | 16.67° C | 45% | 1020.7 hPa | 0 mm | - | - | - |
| 1777550857 | 16.67° C | 44% | 1020.9 hPa | 0 mm | - | - | - |
| 1777549057 | 16.67° C | 46% | 1020.9 hPa | 0 mm | - | - | - |
| 1777547257 | 16.11° C | 49% | 1021.1 hPa | 0 mm | - | - | - |
| 1777545457 | 16.11° C | 49% | 1021.1 hPa | 0 mm | - | - | - |
| 1777543657 | 15.56° C | 47% | 1021.3 hPa | 0 mm | - | - | - |
| 1777541857 | 15° C | 51% | 1021.3 hPa | 0 mm | - | - | - |
| 1777540057 | 14.44° C | 53% | 1021.4 hPa | 0 mm | - | - | - |
| 1777538257 | 14.44° C | 53% | 1021.7 hPa | 0 mm | - | - | - |
| 1777536457 | 13.89° C | 54% | 1021.8 hPa | 0 mm | - | - | - |
| 1777534657 | 13.33° C | 58% | 1021.8 hPa | 0 mm | - | - | - |
| 1777532857 | 12.78° C | 60% | 1021.6 hPa | 0 mm | - | - | - |
| 1777531057 | 12.22° C | 64% | 1021.5 hPa | 0 mm | - | - | - |
| 1777529257 | 11.11° C | 66% | 1021.5 hPa | 0 mm | - | - | - |
| 1777527457 | 10° C | 68% | 1021.6 hPa | 0 mm | - | - | - |
| 1777525657 | 9.44° C | 68% | 1021.5 hPa | 0 mm | - | - | - |
| 1777523857 | 8.89° C | 67% | 1021.5 hPa | 0 mm | - | - | - |
| 1777522057 | 9.44° C | 66% | 1021.5 hPa | 0 mm | - | - | - |
| 1777520257 | 8.89° C | 71% | 1021.3 hPa | 0 mm | - | - | - |
| 1777518457 | 9.44° C | 70% | 1021.4 hPa | 0 mm | - | - | - |
| 1777516657 | 9.44° C | 70% | 1021.5 hPa | 0 mm | - | - | - |
| 1777514857 | 10° C | 69% | 1021.6 hPa | 0 mm | - | - | - |
| 1777513057 | 10° C | 69% | 1021.6 hPa | 0 mm | - | - | - |
| 1777511257 | 10.56° C | 68% | 1021.8 hPa | 0 mm | - | - | - |
| 1777509457 | 10.56° C | 68% | 1021.9 hPa | 0 mm | - | - | - |
* Rain latest hour (hover to see other rain measurements)
** Current wind speed in m/s (hover to see current wind gust speed)